CheckWX is a tool to help pilots better visualize weather data.  It is not intended as a substitute for an official pre-flight weather briefing.

10:12:10 UTC

KLCI METAR
Laconia Municipal Airport
Laconia, New Hampshire, USA
Current

16 mins ago

KLCI 280956Z AUTO 25006KT 10SM OVC047 01/M04 A2965 RMK AO2 SLP046 T00061039 FZRANO
Observed
Jan-28 @ 09:56 UTC
Wind
  • 250° at 6 KTS
Visibility
10 SM
Flight Rules
VFR
Cloud Levels
  • Overcast at 4,700' AGL
Temperature
C / 34°F
Dewpoint
-4°C / 25°F
Humidity
70%
Altimeter
29.65" Hg
Pressure
1004.02 hPa
Previous

1 hour ago

KLCI 280856Z AUTO 26005KT 10SM OVC048 01/M03 A2964 RMK AO2 SLP043 T00061033 51012 FZRANO
Observed
Jan-28 @ 08:56 UTC
Wind
  • 260° at 5 KTS
Visibility
10 SM
Flight Rules
VFR
Cloud Levels
  • Overcast at 4,800' AGL
Temperature
C / 34°F
Dewpoint
-3°C / 27°F
Humidity
75%
Altimeter
29.64" Hg
Pressure
1003.72 hPa
Previous

2 hours ago

KLCI 280756Z AUTO 28005KT 10SM FEW033 BKN040 OVC060 01/M03 A2964 RMK AO2 SLP040 T00111028 FZRANO
Observed
Jan-28 @ 07:56 UTC
Wind
  • 280° at 5 KTS
Visibility
10 SM
Flight Rules
VFR
Cloud Levels
  • Few at 3,300' AGL
  • Broken at 4,000' AGL
  • Overcast at 6,000' AGL
Temperature
C / 34°F
Dewpoint
-3°C / 27°F
Humidity
75%
Altimeter
29.64" Hg
Pressure
1003.72 hPa